sensor_id;sensor_type;location;lat;lon;timestamp;temperature;humidity
78992;DHT22;72820;44.838;37.674;2024-02-21T00:00:01;2.29;70.35
78992;DHT22;72820;44.838;37.674;2024-02-21T00:01:05;2.33;70.51
78992;DHT22;72820;44.838;37.674;2024-02-21T00:02:06;2.34;70.10
78992;DHT22;72820;44.838;37.674;2024-02-21T00:03:08;2.34;70.22
78992;DHT22;72820;44.838;37.674;2024-02-21T00:04:09;2.38;70.21
78992;DHT22;72820;44.838;37.674;2024-02-21T00:05:11;2.40;70.19
78992;DHT22;72820;44.838;37.674;2024-02-21T00:06:12;2.40;70.13
78992;DHT22;72820;44.838;37.674;2024-02-21T00:07:13;2.36;70.14
78992;DHT22;72820;44.838;37.674;2024-02-21T00:08:15;2.38;70.34
78992;DHT22;72820;44.838;37.674;2024-02-21T00:09:16;2.40;70.28
78992;DHT22;72820;44.838;37.674;2024-02-21T00:10:19;2.40;70.40
78992;DHT22;72820;44.838;37.674;2024-02-21T00:11:20;2.41;70.31
78992;DHT22;72820;44.838;37.674;2024-02-21T00:12:22;2.44;70.28
78992;DHT22;72820;44.838;37.674;2024-02-21T00:13:23;2.47;70.08
78992;DHT22;72820;44.838;37.674;2024-02-21T00:14:25;2.47;69.97
78992;DHT22;72820;44.838;37.674;2024-02-21T00:15:27;2.49;69.92
78992;DHT22;72820;44.838;37.674;2024-02-21T00:16:28;2.54;69.83
78992;DHT22;72820;44.838;37.674;2024-02-21T00:17:29;2.55;69.75
78992;DHT22;72820;44.838;37.674;2024-02-21T00:18:31;2.54;69.80
78992;DHT22;72820;44.838;37.674;2024-02-21T00:19:32;2.55;69.77
78992;DHT22;72820;44.838;37.674;2024-02-21T00:20:34;2.54;69.86
78992;DHT22;72820;44.838;37.674;2024-02-21T00:21:35;2.52;70.05
78992;DHT22;72820;44.838;37.674;2024-02-21T00:22:36;2.52;70.13
78992;DHT22;72820;44.838;37.674;2024-02-21T00:23:38;2.52;70.20
78992;DHT22;72820;44.838;37.674;2024-02-21T00:24:39;2.55;70.23
78992;DHT22;72820;44.838;37.674;2024-02-21T00:25:41;2.51;70.17
78992;DHT22;72820;44.838;37.674;2024-02-21T00:26:42;2.52;70.35
78992;DHT22;72820;44.838;37.674;2024-02-21T00:27:44;2.47;70.58
78992;DHT22;72820;44.838;37.674;2024-02-21T00:28:45;2.48;70.73
78992;DHT22;72820;44.838;37.674;2024-02-21T00:29:46;2.48;70.61
78992;DHT22;72820;44.838;37.674;2024-02-21T00:30:48;2.45;70.33
78992;DHT22;72820;44.838;37.674;2024-02-21T00:31:51;2.45;70.52
78992;DHT22;72820;44.838;37.674;2024-02-21T00:32:52;2.42;70.57
78992;DHT22;72820;44.838;37.674;2024-02-21T00:33:54;2.41;70.71
78992;DHT22;72820;44.838;37.674;2024-02-21T00:34:55;2.41;70.94
78992;DHT22;72820;44.838;37.674;2024-02-21T00:35:57;2.40;70.76
78992;DHT22;72820;44.838;37.674;2024-02-21T00:36:58;2.34;71.05
78992;DHT22;72820;44.838;37.674;2024-02-21T00:37:59;2.29;71.20
78992;DHT22;72820;44.838;37.674;2024-02-21T00:39:01;2.27;71.19
78992;DHT22;72820;44.838;37.674;2024-02-21T00:40:02;2.23;71.24
78992;DHT22;72820;44.838;37.674;2024-02-21T00:41:04;2.23;71.39
78992;DHT22;72820;44.838;37.674;2024-02-21T00:42:05;2.20;71.44
78992;DHT22;72820;44.838;37.674;2024-02-21T00:43:09;2.17;71.34
78992;DHT22;72820;44.838;37.674;2024-02-21T00:44:11;2.17;71.44
78992;DHT22;72820;44.838;37.674;2024-02-21T00:45:12;2.19;71.48
78992;DHT22;72820;44.838;37.674;2024-02-21T00:46:13;2.21;71.39
78992;DHT22;72820;44.838;37.674;2024-02-21T00:47:15;2.19;71.33
78992;DHT22;72820;44.838;37.674;2024-02-21T00:48:17;2.19;71.54
78992;DHT22;72820;44.838;37.674;2024-02-21T00:49:18;2.17;71.83
78992;DHT22;72820;44.838;37.674;2024-02-21T00:50:19;2.14;72.02
78992;DHT22;72820;44.838;37.674;2024-02-21T00:51:21;2.10;72.33
78992;DHT22;72820;44.838;37.674;2024-02-21T00:52:22;2.09;72.62
78992;DHT22;72820;44.838;37.674;2024-02-21T00:53:23;2.07;72.92
78992;DHT22;72820;44.838;37.674;2024-02-21T00:54:26;2.05;72.95
78992;DHT22;72820;44.838;37.674;2024-02-21T00:55:28;2.05;73.07
78992;DHT22;72820;44.838;37.674;2024-02-21T00:56:29;2.03;73.23
78992;DHT22;72820;44.838;37.674;2024-02-21T00:57:31;2.06;73.19
78992;DHT22;72820;44.838;37.674;2024-02-21T00:58:33;2.02;73.35
78992;DHT22;72820;44.838;37.674;2024-02-21T00:59:34;2.02;73.35
78992;DHT22;72820;44.838;37.674;2024-02-21T01:00:36;2.02;73.41
78992;DHT22;72820;44.838;37.674;2024-02-21T01:01:37;2.01;73.34
78992;DHT22;72820;44.838;37.674;2024-02-21T01:02:38;1.99;73.37
78992;DHT22;72820;44.838;37.674;2024-02-21T01:03:40;1.95;73.55
78992;DHT22;72820;44.838;37.674;2024-02-21T01:04:41;1.98;73.57
78992;DHT22;72820;44.838;37.674;2024-02-21T01:05:43;1.95;73.57
78992;DHT22;72820;44.838;37.674;2024-02-21T01:06:44;1.93;73.59
78992;DHT22;72820;44.838;37.674;2024-02-21T01:07:45;1.87;73.80
78992;DHT22;72820;44.838;37.674;2024-02-21T01:08:47;1.86;73.84
78992;DHT22;72820;44.838;37.674;2024-02-21T01:09:49;1.82;73.95
78992;DHT22;72820;44.838;37.674;2024-02-21T01:10:52;1.82;74.24
78992;DHT22;72820;44.838;37.674;2024-02-21T01:11:53;1.83;74.19
78992;DHT22;72820;44.838;37.674;2024-02-21T01:12:54;1.81;74.03
78992;DHT22;72820;44.838;37.674;2024-02-21T01:13:56;1.78;74.00
78992;DHT22;72820;44.838;37.674;2024-02-21T01:14:57;1.74;74.11
78992;DHT22;72820;44.838;37.674;2024-02-21T01:15:59;1.68;74.53
78992;DHT22;72820;44.838;37.674;2024-02-21T01:17:00;1.69;74.66
78992;DHT22;72820;44.838;37.674;2024-02-21T01:18:02;1.68;74.73
78992;DHT22;72820;44.838;37.674;2024-02-21T01:19:04;1.65;74.72
78992;DHT22;72820;44.838;37.674;2024-02-21T01:20:06;1.68;74.67
78992;DHT22;72820;44.838;37.674;2024-02-21T01:21:08;1.68;74.53
78992;DHT22;72820;44.838;37.674;2024-02-21T01:22:10;1.67;74.56
78992;DHT22;72820;44.838;37.674;2024-02-21T01:23:12;1.67;74.58
78992;DHT22;72820;44.838;37.674;2024-02-21T01:24:16;1.69;74.65
78992;DHT22;72820;44.838;37.674;2024-02-21T01:25:17;1.72;74.54
78992;DHT22;72820;44.838;37.674;2024-02-21T01:26:19;1.69;74.37
78992;DHT22;72820;44.838;37.674;2024-02-21T01:27:20;1.62;74.45
78992;DHT22;72820;44.838;37.674;2024-02-21T01:28:22;1.61;74.75
78992;DHT22;72820;44.838;37.674;2024-02-21T01:29:23;1.62;74.74
78992;DHT22;72820;44.838;37.674;2024-02-21T01:30:24;1.65;74.68
78992;DHT22;72820;44.838;37.674;2024-02-21T01:31:26;1.68;74.75
78992;DHT22;72820;44.838;37.674;2024-02-21T01:32:27;1.71;74.89
78992;DHT22;72820;44.838;37.674;2024-02-21T01:33:30;1.75;74.74
78992;DHT22;72820;44.838;37.674;2024-02-21T01:34:35;1.71;74.88
78992;DHT22;72820;44.838;37.674;2024-02-21T01:35:38;1.68;74.83
78992;DHT22;72820;44.838;37.674;2024-02-21T01:36:39;1.67;74.90
78992;DHT22;72820;44.838;37.674;2024-02-21T01:37:42;1.65;75.02
78992;DHT22;72820;44.838;37.674;2024-02-21T01:38:43;1.68;75.05
78992;DHT22;72820;44.838;37.674;2024-02-21T01:39:45;1.69;74.99
78992;DHT22;72820;44.838;37.674;2024-02-21T01:40:46;1.71;75.00
78992;DHT22;72820;44.838;37.674;2024-02-21T01:41:48;1.72;74.76
78992;DHT22;72820;44.838;37.674;2024-02-21T01:42:49;1.72;74.85
78992;DHT22;72820;44.838;37.674;2024-02-21T01:43:51;1.69;74.77
78992;DHT22;72820;44.838;37.674;2024-02-21T01:44:52;1.69;74.88
78992;DHT22;72820;44.838;37.674;2024-02-21T01:45:57;1.71;74.77
78992;DHT22;72820;44.838;37.674;2024-02-21T01:46:58;1.69;74.69
78992;DHT22;72820;44.838;37.674;2024-02-21T01:48:00;1.68;74.87
78992;DHT22;72820;44.838;37.674;2024-02-21T01:49:02;1.68;74.77
78992;DHT22;72820;44.838;37.674;2024-02-21T01:50:04;1.65;75.07
78992;DHT22;72820;44.838;37.674;2024-02-21T01:51:05;1.65;75.43
78992;DHT22;72820;44.838;37.674;2024-02-21T01:52:07;1.65;75.12
78992;DHT22;72820;44.838;37.674;2024-02-21T01:53:10;1.64;75.07
78992;DHT22;72820;44.838;37.674;2024-02-21T01:54:13;1.64;75.12
78992;DHT22;72820;44.838;37.674;2024-02-21T01:55:17;1.62;75.20
78992;DHT22;72820;44.838;37.674;2024-02-21T01:56:18;1.64;74.94
78992;DHT22;72820;44.838;37.674;2024-02-21T01:57:20;1.59;74.97
78992;DHT22;72820;44.838;37.674;2024-02-21T01:58:21;1.61;75.00
78992;DHT22;72820;44.838;37.674;2024-02-21T01:59:23;1.57;75.17
78992;DHT22;72820;44.838;37.674;2024-02-21T02:00:25;1.52;75.18
78992;DHT22;72820;44.838;37.674;2024-02-21T02:01:29;1.52;75.39
78992;DHT22;72820;44.838;37.674;2024-02-21T02:02:30;1.55;75.34
78992;DHT22;72820;44.838;37.674;2024-02-21T02:03:32;1.55;75.01
78992;DHT22;72820;44.838;37.674;2024-02-21T02:04:34;1.55;74.89
78992;DHT22;72820;44.838;37.674;2024-02-21T02:05:36;1.55;74.92
78992;DHT22;72820;44.838;37.674;2024-02-21T02:06:37;1.59;74.73
78992;DHT22;72820;44.838;37.674;2024-02-21T02:07:39;1.55;74.67
78992;DHT22;72820;44.838;37.674;2024-02-21T02:08:40;1.51;74.93
78992;DHT22;72820;44.838;37.674;2024-02-21T02:09:42;1.54;75.05
78992;DHT22;72820;44.838;37.674;2024-02-21T02:10:44;1.54;74.96
78992;DHT22;72820;44.838;37.674;2024-02-21T02:11:46;1.52;74.80
78992;DHT22;72820;44.838;37.674;2024-02-21T02:12:48;1.52;74.78
78992;DHT22;72820;44.838;37.674;2024-02-21T02:13:49;1.55;74.88
78992;DHT22;72820;44.838;37.674;2024-02-21T02:15:03;1.55;74.71
78992;DHT22;72820;44.838;37.674;2024-02-21T02:16:07;1.54;74.90
78992;DHT22;72820;44.838;37.674;2024-02-21T02:17:09;1.52;74.89
78992;DHT22;72820;44.838;37.674;2024-02-21T02:18:11;1.57;74.79
78992;DHT22;72820;44.838;37.674;2024-02-21T02:19:13;1.58;74.70
78992;DHT22;72820;44.838;37.674;2024-02-21T02:20:14;1.57;74.62
78992;DHT22;72820;44.838;37.674;2024-02-21T02:21:27;1.54;74.81
78992;DHT22;72820;44.838;37.674;2024-02-21T02:22:32;1.57;74.94
78992;DHT22;72820;44.838;37.674;2024-02-21T02:23:35;1.54;74.96
78992;DHT22;72820;44.838;37.674;2024-02-21T02:24:36;1.57;74.98
78992;DHT22;72820;44.838;37.674;2024-02-21T02:25:39;1.59;75.06
78992;DHT22;72820;44.838;37.674;2024-02-21T02:26:41;1.59;74.96
78992;DHT22;72820;44.838;37.674;2024-02-21T02:27:42;1.65;74.70
78992;DHT22;72820;44.838;37.674;2024-02-21T02:28:45;1.61;74.52
78992;DHT22;72820;44.838;37.674;2024-02-21T02:29:46;1.64;74.60
78992;DHT22;72820;44.838;37.674;2024-02-21T02:30:48;1.58;74.61
78992;DHT22;72820;44.838;37.674;2024-02-21T02:31:51;1.58;74.61
78992;DHT22;72820;44.838;37.674;2024-02-21T02:32:52;1.55;74.65
78992;DHT22;72820;44.838;37.674;2024-02-21T02:33:53;1.57;74.65
78992;DHT22;72820;44.838;37.674;2024-02-21T02:34:55;1.55;74.81
78992;DHT22;72820;44.838;37.674;2024-02-21T02:35:57;1.55;74.74
78992;DHT22;72820;44.838;37.674;2024-02-21T02:36:59;1.52;74.83
78992;DHT22;72820;44.838;37.674;2024-02-21T02:38:01;1.51;74.73
78992;DHT22;72820;44.838;37.674;2024-02-21T02:39:02;1.48;74.81
78992;DHT22;72820;44.838;37.674;2024-02-21T02:40:05;1.48;74.90
78992;DHT22;72820;44.838;37.674;2024-02-21T02:41:07;1.48;74.86
78992;DHT22;72820;44.838;37.674;2024-02-21T02:42:08;1.50;74.77
78992;DHT22;72820;44.838;37.674;2024-02-21T02:43:10;1.48;74.71
78992;DHT22;72820;44.838;37.674;2024-02-21T02:44:11;1.44;74.87
78992;DHT22;72820;44.838;37.674;2024-02-21T02:45:12;1.46;75.08
78992;DHT22;72820;44.838;37.674;2024-02-21T02:46:14;1.47;75.03
78992;DHT22;72820;44.838;37.674;2024-02-21T02:47:15;1.47;75.05
78992;DHT22;72820;44.838;37.674;2024-02-21T02:48:17;1.47;74.93
78992;DHT22;72820;44.838;37.674;2024-02-21T02:49:19;1.46;74.92
78992;DHT22;72820;44.838;37.674;2024-02-21T02:50:20;1.46;74.95
78992;DHT22;72820;44.838;37.674;2024-02-21T02:51:22;1.46;74.98
78992;DHT22;72820;44.838;37.674;2024-02-21T02:52:23;1.41;75.07
78992;DHT22;72820;44.838;37.674;2024-02-21T02:53:24;1.41;75.26
78992;DHT22;72820;44.838;37.674;2024-02-21T02:54:26;1.36;75.27
78992;DHT22;72820;44.838;37.674;2024-02-21T02:55:27;1.31;75.57
78992;DHT22;72820;44.838;37.674;2024-02-21T02:56:29;1.31;75.63
78992;DHT22;72820;44.838;37.674;2024-02-21T02:57:30;1.30;75.72
78992;DHT22;72820;44.838;37.674;2024-02-21T02:58:31;1.26;75.68
78992;DHT22;72820;44.838;37.674;2024-02-21T02:59:33;1.23;75.91
78992;DHT22;72820;44.838;37.674;2024-02-21T03:00:34;1.16;76.22
78992;DHT22;72820;44.838;37.674;2024-02-21T03:01:37;1.20;76.46
78992;DHT22;72820;44.838;37.674;2024-02-21T03:02:43;1.27;76.31
78992;DHT22;72820;44.838;37.674;2024-02-21T03:03:47;1.31;76.09
78992;DHT22;72820;44.838;37.674;2024-02-21T03:04:48;1.33;75.94
78992;DHT22;72820;44.838;37.674;2024-02-21T03:05:49;1.37;75.93
78992;DHT22;72820;44.838;37.674;2024-02-21T03:06:51;1.38;75.69
78992;DHT22;72820;44.838;37.674;2024-02-21T03:07:52;1.37;75.68
78992;DHT22;72820;44.838;37.674;2024-02-21T03:08:55;1.43;75.71
78992;DHT22;72820;44.838;37.674;2024-02-21T03:09:56;1.47;75.43
78992;DHT22;72820;44.838;37.674;2024-02-21T03:10:58;1.47;75.35
78992;DHT22;72820;44.838;37.674;2024-02-21T03:12:00;1.48;75.16
78992;DHT22;72820;44.838;37.674;2024-02-21T03:13:03;1.51;74.96
78992;DHT22;72820;44.838;37.674;2024-02-21T03:14:05;1.55;74.97
78992;DHT22;72820;44.838;37.674;2024-02-21T03:15:06;1.54;74.92
78992;DHT22;72820;44.838;37.674;2024-02-21T03:16:08;1.57;74.81
78992;DHT22;72820;44.838;37.674;2024-02-21T03:17:09;1.59;75.06
78992;DHT22;72820;44.838;37.674;2024-02-21T03:18:11;1.62;74.98
78992;DHT22;72820;44.838;37.674;2024-02-21T03:19:12;1.62;74.76
78992;DHT22;72820;44.838;37.674;2024-02-21T03:20:13;1.67;74.67
78992;DHT22;72820;44.838;37.674;2024-02-21T03:21:14;1.67;74.67
78992;DHT22;72820;44.838;37.674;2024-02-21T03:22:16;1.65;74.46
78992;DHT22;72820;44.838;37.674;2024-02-21T03:23:17;1.68;74.32
78992;DHT22;72820;44.838;37.674;2024-02-21T03:24:19;1.65;74.45
78992;DHT22;72820;44.838;37.674;2024-02-21T03:25:20;1.67;74.60
78992;DHT22;72820;44.838;37.674;2024-02-21T03:26:22;1.67;74.66
78992;DHT22;72820;44.838;37.674;2024-02-21T03:27:23;1.67;74.69
78992;DHT22;72820;44.838;37.674;2024-02-21T03:28:25;1.71;74.46
78992;DHT22;72820;44.838;37.674;2024-02-21T03:29:26;1.71;74.17
78992;DHT22;72820;44.838;37.674;2024-02-21T03:30:27;1.71;74.29
78992;DHT22;72820;44.838;37.674;2024-02-21T03:31:29;1.71;74.17
78992;DHT22;72820;44.838;37.674;2024-02-21T03:32:30;1.71;74.21
78992;DHT22;72820;44.838;37.674;2024-02-21T03:33:32;1.71;74.15
78992;DHT22;72820;44.838;37.674;2024-02-21T03:34:33;1.67;74.35
78992;DHT22;72820;44.838;37.674;2024-02-21T03:35:35;1.68;74.49
78992;DHT22;72820;44.838;37.674;2024-02-21T03:36:36;1.67;74.33
78992;DHT22;72820;44.838;37.674;2024-02-21T03:37:37;1.67;74.29
78992;DHT22;72820;44.838;37.674;2024-02-21T03:38:39;1.67;74.27
78992;DHT22;72820;44.838;37.674;2024-02-21T03:39:41;1.67;74.04
78992;DHT22;72820;44.838;37.674;2024-02-21T03:40:46;1.65;74.07
78992;DHT22;72820;44.838;37.674;2024-02-21T03:41:47;1.67;74.09
78992;DHT22;72820;44.838;37.674;2024-02-21T03:42:49;1.67;74.06
78992;DHT22;72820;44.838;37.674;2024-02-21T03:43:50;1.67;74.04
78992;DHT22;72820;44.838;37.674;2024-02-21T03:44:52;1.68;74.02
78992;DHT22;72820;44.838;37.674;2024-02-21T03:45:53;1.71;74.12
78992;DHT22;72820;44.838;37.674;2024-02-21T03:46:54;1.74;73.99
78992;DHT22;72820;44.838;37.674;2024-02-21T03:47:56;1.71;73.83
78992;DHT22;72820;44.838;37.674;2024-02-21T03:48:57;1.74;73.86
78992;DHT22;72820;44.838;37.674;2024-02-21T03:49:59;1.78;73.87
78992;DHT22;72820;44.838;37.674;2024-02-21T03:51:00;1.72;73.87
78992;DHT22;72820;44.838;37.674;2024-02-21T03:52:02;1.72;73.90
78992;DHT22;72820;44.838;37.674;2024-02-21T03:53:03;1.68;74.19
78992;DHT22;72820;44.838;37.674;2024-02-21T03:54:05;1.68;74.10
78992;DHT22;72820;44.838;37.674;2024-02-21T03:55:07;1.62;74.30
78992;DHT22;72820;44.838;37.674;2024-02-21T03:56:08;1.62;74.31
78992;DHT22;72820;44.838;37.674;2024-02-21T03:57:10;1.61;74.28
78992;DHT22;72820;44.838;37.674;2024-02-21T03:58:11;1.65;74.27
78992;DHT22;72820;44.838;37.674;2024-02-21T03:59:13;1.67;74.09
78992;DHT22;72820;44.838;37.674;2024-02-21T04:00:15;1.67;74.16
78992;DHT22;72820;44.838;37.674;2024-02-21T04:01:16;1.65;74.13
78992;DHT22;72820;44.838;37.674;2024-02-21T04:02:18;1.64;74.37
78992;DHT22;72820;44.838;37.674;2024-02-21T04:03:19;1.61;74.35
78992;DHT22;72820;44.838;37.674;2024-02-21T04:04:21;1.62;74.38
78992;DHT22;72820;44.838;37.674;2024-02-21T04:05:22;1.62;74.56
78992;DHT22;72820;44.838;37.674;2024-02-21T04:06:23;1.58;74.71
78992;DHT22;72820;44.838;37.674;2024-02-21T04:07:25;1.59;74.60
78992;DHT22;72820;44.838;37.674;2024-02-21T04:08:26;1.58;74.65
78992;DHT22;72820;44.838;37.674;2024-02-21T04:09:27;1.55;74.87
78992;DHT22;72820;44.838;37.674;2024-02-21T04:10:29;1.61;74.87
78992;DHT22;72820;44.838;37.674;2024-02-21T04:11:30;1.61;74.69
78992;DHT22;72820;44.838;37.674;2024-02-21T04:12:31;1.59;74.65
78992;DHT22;72820;44.838;37.674;2024-02-21T04:13:33;1.61;74.73
78992;DHT22;72820;44.838;37.674;2024-02-21T04:14:34;1.64;74.57
78992;DHT22;72820;44.838;37.674;2024-02-21T04:15:35;1.61;74.53
78992;DHT22;72820;44.838;37.674;2024-02-21T04:16:37;1.59;74.61
78992;DHT22;72820;44.838;37.674;2024-02-21T04:17:39;1.59;74.65
78992;DHT22;72820;44.838;37.674;2024-02-21T04:18:40;1.59;74.65
78992;DHT22;72820;44.838;37.674;2024-02-21T04:19:42;1.59;74.85
78992;DHT22;72820;44.838;37.674;2024-02-21T04:20:43;1.59;74.97
78992;DHT22;72820;44.838;37.674;2024-02-21T04:21:45;1.64;74.74
78992;DHT22;72820;44.838;37.674;2024-02-21T04:22:46;1.62;74.38
78992;DHT22;72820;44.838;37.674;2024-02-21T04:23:47;1.62;74.43
78992;DHT22;72820;44.838;37.674;2024-02-21T04:24:49;1.58;74.63
78992;DHT22;72820;44.838;37.674;2024-02-21T04:25:50;1.58;74.66
78992;DHT22;72820;44.838;37.674;2024-02-21T04:26:52;1.57;74.59
78992;DHT22;72820;44.838;37.674;2024-02-21T04:27:53;1.51;74.85
78992;DHT22;72820;44.838;37.674;2024-02-21T04:28:55;1.50;75.05
78992;DHT22;72820;44.838;37.674;2024-02-21T04:29:56;1.51;74.94
78992;DHT22;72820;44.838;37.674;2024-02-21T04:30:58;1.54;74.91
78992;DHT22;72820;44.838;37.674;2024-02-21T04:31:59;1.55;74.87
78992;DHT22;72820;44.838;37.674;2024-02-21T04:33:02;1.54;75.13
78992;DHT22;72820;44.838;37.674;2024-02-21T04:34:06;1.55;75.19
78992;DHT22;72820;44.838;37.674;2024-02-21T04:35:08;1.57;75.16
78992;DHT22;72820;44.838;37.674;2024-02-21T04:36:09;1.54;75.11
78992;DHT22;72820;44.838;37.674;2024-02-21T04:37:11;1.48;75.47
78992;DHT22;72820;44.838;37.674;2024-02-21T04:38:12;1.50;75.39
78992;DHT22;72820;44.838;37.674;2024-02-21T04:39:14;1.52;75.27
78992;DHT22;72820;44.838;37.674;2024-02-21T04:40:15;1.55;75.01
78992;DHT22;72820;44.838;37.674;2024-02-21T04:41:18;1.58;75.11
78992;DHT22;72820;44.838;37.674;2024-02-21T04:42:19;1.58;75.00
78992;DHT22;72820;44.838;37.674;2024-02-21T04:43:21;1.59;74.92
78992;DHT22;72820;44.838;37.674;2024-02-21T04:44:22;1.65;74.79
78992;DHT22;72820;44.838;37.674;2024-02-21T04:45:24;1.65;74.46
78992;DHT22;72820;44.838;37.674;2024-02-21T04:46:26;1.68;74.27
78992;DHT22;72820;44.838;37.674;2024-02-21T04:47:27;1.69;74.36
78992;DHT22;72820;44.838;37.674;2024-02-21T04:48:29;1.72;74.13
78992;DHT22;72820;44.838;37.674;2024-02-21T04:49:30;1.75;73.91
78992;DHT22;72820;44.838;37.674;2024-02-21T04:50:32;1.74;73.56
78992;DHT22;72820;44.838;37.674;2024-02-21T04:51:33;1.78;72.07
78992;DHT22;72820;44.838;37.674;2024-02-21T04:52:35;1.82;71.56
78992;DHT22;72820;44.838;37.674;2024-02-21T04:53:36;1.85;71.73
78992;DHT22;72820;44.838;37.674;2024-02-21T04:54:38;1.89;71.08
78992;DHT22;72820;44.838;37.674;2024-02-21T04:55:39;1.93;70.86
78992;DHT22;72820;44.838;37.674;2024-02-21T04:56:41;1.95;70.57
78992;DHT22;72820;44.838;37.674;2024-02-21T04:57:42;1.98;71.00
78992;DHT22;72820;44.838;37.674;2024-02-21T04:58:44;1.98;71.68
78992;DHT22;72820;44.838;37.674;2024-02-21T04:59:46;1.89;72.35
78992;DHT22;72820;44.838;37.674;2024-02-21T05:00:50;1.83;72.91
78992;DHT22;72820;44.838;37.674;2024-02-21T05:01:52;1.85;73.36
78992;DHT22;72820;44.838;37.674;2024-02-21T05:02:53;1.89;73.10
78992;DHT22;72820;44.838;37.674;2024-02-21T05:03:54;1.87;71.98
78992;DHT22;72820;44.838;37.674;2024-02-21T05:04:56;1.91;72.34
78992;DHT22;72820;44.838;37.674;2024-02-21T05:05:59;1.89;72.86
78992;DHT22;72820;44.838;37.674;2024-02-21T05:07:00;1.86;73.05
78992;DHT22;72820;44.838;37.674;2024-02-21T05:08:02;1.82;73.35
78992;DHT22;72820;44.838;37.674;2024-02-21T05:09:04;1.81;72.92
78992;DHT22;72820;44.838;37.674;2024-02-21T05:10:07;1.83;71.89
78992;DHT22;72820;44.838;37.674;2024-02-21T05:11:08;1.86;71.68
78992;DHT22;72820;44.838;37.674;2024-02-21T05:12:10;1.89;72.03
78992;DHT22;72820;44.838;37.674;2024-02-21T05:13:11;1.93;72.58
78992;DHT22;72820;44.838;37.674;2024-02-21T05:14:14;1.98;72.83
78992;DHT22;72820;44.838;37.674;2024-02-21T05:15:15;2.03;73.06
78992;DHT22;72820;44.838;37.674;2024-02-21T05:16:17;2.10;70.47
78992;DHT22;72820;44.838;37.674;2024-02-21T05:17:20;2.13;70.74
78992;DHT22;72820;44.838;37.674;2024-02-21T05:18:21;2.17;71.05
78992;DHT22;72820;44.838;37.674;2024-02-21T05:19:23;2.13;71.79
78992;DHT22;72820;44.838;37.674;2024-02-21T05:20:24;2.10;72.24
78992;DHT22;72820;44.838;37.674;2024-02-21T05:21:26;2.09;72.35
78992;DHT22;72820;44.838;37.674;2024-02-21T05:22:29;2.09;72.37
78992;DHT22;72820;44.838;37.674;2024-02-21T05:23:30;2.01;72.54
78992;DHT22;72820;44.838;37.674;2024-02-21T05:24:31;2.01;72.49
78992;DHT22;72820;44.838;37.674;2024-02-21T05:25:33;2.01;72.54
78992;DHT22;72820;44.838;37.674;2024-02-21T05:26:34;2.03;72.43
78992;DHT22;72820;44.838;37.674;2024-02-21T05:27:36;2.06;72.53
78992;DHT22;72820;44.838;37.674;2024-02-21T05:28:37;2.13;72.85
78992;DHT22;72820;44.838;37.674;2024-02-21T05:29:39;2.14;73.00
78992;DHT22;72820;44.838;37.674;2024-02-21T05:30:40;2.13;73.02
78992;DHT22;72820;44.838;37.674;2024-02-21T05:32:54;2.23;73.08
78992;DHT22;72820;44.838;37.674;2024-02-21T05:33:56;2.29;72.85
78992;DHT22;72820;44.838;37.674;2024-02-21T05:34:57;2.31;72.92
78992;DHT22;72820;44.838;37.674;2024-02-21T05:35:59;2.30;72.90
78992;DHT22;72820;44.838;37.674;2024-02-21T05:37:00;2.29;72.99
78992;DHT22;72820;44.838;37.674;2024-02-21T05:38:02;2.27;73.12
78992;DHT22;72820;44.838;37.674;2024-02-21T05:39:09;2.26;73.03
78992;DHT22;72820;44.838;37.674;2024-02-21T05:40:11;2.26;73.12
78992;DHT22;72820;44.838;37.674;2024-02-21T05:41:14;2.26;73.00
78992;DHT22;72820;44.838;37.674;2024-02-21T05:42:15;2.26;73.27
78992;DHT22;72820;44.838;37.674;2024-02-21T05:43:17;2.27;73.57
78992;DHT22;72820;44.838;37.674;2024-02-21T05:44:18;2.27;73.60
78992;DHT22;72820;44.838;37.674;2024-02-21T05:45:20;2.31;73.77
78992;DHT22;72820;44.838;37.674;2024-02-21T05:46:22;2.36;73.68
78992;DHT22;72820;44.838;37.674;2024-02-21T05:47:23;2.38;73.41
78992;DHT22;72820;44.838;37.674;2024-02-21T05:48:24;2.38;73.62
78992;DHT22;72820;44.838;37.674;2024-02-21T05:49:26;2.44;73.81
78992;DHT22;72820;44.838;37.674;2024-02-21T05:50:27;2.45;73.50
78992;DHT22;72820;44.838;37.674;2024-02-21T05:51:35;2.51;73.32
78992;DHT22;72820;44.838;37.674;2024-02-21T05:52:36;2.54;73.05
78992;DHT22;72820;44.838;37.674;2024-02-21T05:53:38;2.58;73.11
78992;DHT22;72820;44.838;37.674;2024-02-21T05:54:41;2.65;73.07
78992;DHT22;72820;44.838;37.674;2024-02-21T05:55:43;2.68;72.61
78992;DHT22;72820;44.838;37.674;2024-02-21T05:56:45;2.71;72.47
78992;DHT22;72820;44.838;37.674;2024-02-21T05:57:47;2.69;72.56
78992;DHT22;72820;44.838;37.674;2024-02-21T05:58:48;2.72;72.49
78992;DHT22;72820;44.838;37.674;2024-02-21T05:59:49;2.75;72.24
78992;DHT22;72820;44.838;37.674;2024-02-21T06:00:51;2.76;72.11
78992;DHT22;72820;44.838;37.674;2024-02-21T06:01:58;2.81;72.25
78992;DHT22;72820;44.838;37.674;2024-02-21T06:03:00;2.84;72.38
78992;DHT22;72820;44.838;37.674;2024-02-21T06:04:01;2.93;72.37
78992;DHT22;72820;44.838;37.674;2024-02-21T06:05:03;2.95;72.23
78992;DHT22;72820;44.838;37.674;2024-02-21T06:06:08;3.02;72.13
78992;DHT22;72820;44.838;37.674;2024-02-21T06:07:09;3.02;71.83
78992;DHT22;72820;44.838;37.674;2024-02-21T06:08:11;3.06;71.66
78992;DHT22;72820;44.838;37.674;2024-02-21T06:09:12;3.06;71.79
78992;DHT22;72820;44.838;37.674;2024-02-21T06:10:14;3.13;71.68
78992;DHT22;72820;44.838;37.674;2024-02-21T06:11:15;3.12;71.73
78992;DHT22;72820;44.838;37.674;2024-02-21T06:12:16;3.13;71.22
78992;DHT22;72820;44.838;37.674;2024-02-21T06:13:18;3.13;71.58
78992;DHT22;72820;44.838;37.674;2024-02-21T06:14:20;3.14;71.13
78992;DHT22;72820;44.838;37.674;2024-02-21T06:15:21;3.13;71.42
78992;DHT22;72820;44.838;37.674;2024-02-21T06:16:22;3.16;71.71
78992;DHT22;72820;44.838;37.674;2024-02-21T06:17:24;3.21;71.34
78992;DHT22;72820;44.838;37.674;2024-02-21T06:18:25;3.27;71.32
78992;DHT22;72820;44.838;37.674;2024-02-21T06:19:27;3.32;71.12
78992;DHT22;72820;44.838;37.674;2024-02-21T06:20:28;3.37;70.98
78992;DHT22;72820;44.838;37.674;2024-02-21T06:21:30;3.37;70.93
78992;DHT22;72820;44.838;37.674;2024-02-21T06:22:31;3.40;71.01
78992;DHT22;72820;44.838;37.674;2024-02-21T06:23:33;3.40;70.60
78992;DHT22;72820;44.838;37.674;2024-02-21T06:24:35;3.45;70.76
78992;DHT22;72820;44.838;37.674;2024-02-21T06:25:38;3.47;70.60
78992;DHT22;72820;44.838;37.674;2024-02-21T06:26:40;3.42;70.56
78992;DHT22;72820;44.838;37.674;2024-02-21T06:27:42;3.48;70.56
78992;DHT22;72820;44.838;37.674;2024-02-21T06:28:43;3.50;70.29
78992;DHT22;72820;44.838;37.674;2024-02-21T06:29:45;3.51;70.33
78992;DHT22;72820;44.838;37.674;2024-02-21T06:30:46;3.50;70.36